Urucurituba, Brazil
Current Conditions -  °F | °C
As of 6:10 AM on Tuesday 21 Oct 2014 (Local Time) from SBMN Reporting Station
Moderate Fog Moderate Fog  
Wind Chill: 77°   Ceiling: 200
Heat Index: 78°   Visibility: 0.56mi
Dew Point: 75°   Wind: 6mph
Humidity: 94%   Direction: 230°SW
Pressure: 29.88"   Gusts: NA
Location:  3.13°S, 58.15°W
Report Text: SBMN 211010Z 23005KT 0900 FG BKN002 OVC004 25/24 Q1012
Loading
Personal Weather Stations






























Interactive Weather Map
Tropical Storm Tracking
New forecast layout! Learn more

10-Day Weather Forecast

Advertisements
Track Severe Weather on mobile